createdAt,value
2018-09-04T00:01:53.383Z,101707.64
2018-09-04T00:04:21.720Z,101703.70
2018-09-04T00:06:50.060Z,101704.00
2018-09-04T00:09:18.420Z,101703.97
2018-09-04T00:11:46.752Z,101698.09
2018-09-04T00:14:15.098Z,101699.10
2018-09-04T00:16:42.851Z,101695.11
2018-09-04T00:19:11.778Z,101692.25
2018-09-04T00:21:39.533Z,101694.09
2018-09-04T00:24:08.480Z,101692.62
2018-09-04T00:26:36.825Z,101691.08
2018-09-04T00:29:05.393Z,101689.70
2018-09-04T00:31:32.921Z,101690.81
2018-09-04T00:34:01.863Z,101690.36
2018-09-04T00:36:29.617Z,101693.91
2018-09-04T00:38:57.951Z,101688.86
2018-09-04T00:41:26.876Z,101688.91
2018-09-04T00:43:55.226Z,101695.82
2018-09-04T00:46:23.548Z,101697.89
2018-09-04T00:48:52.040Z,101697.98
2018-09-04T00:51:20.378Z,101698.91
2018-09-04T00:53:48.722Z,101699.95
2018-09-04T00:56:17.280Z,101700.08
2018-09-04T00:58:44.810Z,101703.63
2018-09-04T01:01:13.154Z,101701.66
2018-09-04T01:03:41.494Z,101702.41
2018-09-04T01:06:10.418Z,101700.56
2018-09-04T01:08:38.754Z,101699.83
2018-09-04T01:11:07.702Z,101699.26
2018-09-04T01:13:34.872Z,101695.42
2018-09-04T01:16:03.207Z,101696.27
2018-09-04T01:18:32.142Z,101697.02
2018-09-04T01:21:00.679Z,101698.02
2018-09-04T01:23:29.018Z,101693.78
2018-09-04T01:25:56.765Z,101694.12
2018-09-04T01:28:25.116Z,101691.05
2018-09-04T01:30:54.024Z,101688.48
2018-09-04T01:33:21.776Z,101685.73
2018-09-04T01:35:50.696Z,101687.71
2018-09-04T01:38:19.022Z,101686.83
2018-09-04T01:40:47.355Z,101683.87
2018-09-04T01:43:15.758Z,101689.69
2018-09-04T01:45:43.515Z,101685.72
2018-09-04T01:48:12.426Z,101685.45
2018-09-04T01:50:40.769Z,101683.77
2018-09-04T01:53:09.130Z,101684.56
2018-09-04T01:55:37.450Z,101688.16
2018-09-04T01:58:06.083Z,101682.30
2018-09-04T02:00:33.553Z,101685.86
2018-09-04T02:03:02.598Z,101682.06
2018-09-04T02:05:30.363Z,101680.25
2018-09-04T02:07:58.702Z,101682.40
2018-09-04T02:10:28.387Z,101674.02
2018-09-04T02:12:55.962Z,101671.78
2018-09-04T02:15:24.316Z,101672.93
2018-09-04T02:17:53.341Z,101673.73
2018-09-04T02:20:20.976Z,101673.02
2018-09-04T02:22:49.310Z,101674.79
2018-09-04T02:25:17.649Z,101675.02
2018-09-04T02:27:45.987Z,101675.02
2018-09-04T02:30:14.326Z,101670.73
2018-09-04T02:32:43.378Z,101670.84
2018-09-04T02:35:10.969Z,101672.02
2018-09-04T02:37:39.304Z,101667.44
2018-09-04T02:40:07.063Z,101666.33
2018-09-04T02:42:36.001Z,101665.55
2018-09-04T02:45:04.355Z,101665.14
2018-09-04T02:47:32.125Z,101661.47
2018-09-04T02:50:01.045Z,101660.44
2018-09-04T02:52:29.375Z,101657.23
2018-09-04T02:54:57.691Z,101653.77
2018-09-04T02:57:25.451Z,101652.25
2018-09-04T02:59:53.801Z,101643.80
2018-09-04T03:02:22.140Z,101646.61
2018-09-04T03:04:51.060Z,101644.32
2018-09-04T03:07:19.393Z,101646.30
2018-09-04T03:09:47.728Z,101646.47
2018-09-04T03:12:16.081Z,101645.85
2018-09-04T03:14:44.408Z,101646.87
2018-09-04T03:17:12.759Z,101648.78
2018-09-04T03:19:40.516Z,101647.69
2018-09-04T03:22:09.436Z,101650.11
2018-09-04T03:24:37.787Z,101648.42
2018-09-04T03:27:06.131Z,101646.59
2018-09-04T03:29:36.191Z,101643.73
2018-09-04T03:32:02.825Z,101645.38
2018-09-04T03:34:30.584Z,101644.77
2018-09-04T03:36:59.508Z,101642.75
2018-09-04T03:39:27.865Z,101636.36
2018-09-04T03:41:56.208Z,101634.08
2018-09-04T03:44:24.006Z,101623.68
2018-09-04T03:46:52.909Z,101624.57
2018-09-04T03:49:21.472Z,101624.58
2018-09-04T03:51:48.999Z,101629.31
2018-09-04T03:54:17.908Z,101629.03
2018-09-04T03:56:46.243Z,101628.91
2018-09-04T03:59:14.564Z,101626.04
2018-09-04T04:01:42.405Z,101630.95
2018-09-04T04:04:10.638Z,101627.47
2018-09-04T04:06:39.545Z,101623.30
2018-09-04T04:09:07.291Z,101620.95
2018-09-04T04:11:36.212Z,101617.48
2018-09-04T04:14:04.546Z,101620.77
2018-09-04T04:16:32.879Z,101620.22
2018-09-04T04:19:00.622Z,101616.53
2018-09-04T04:21:29.532Z,101614.40
2018-09-04T04:23:57.945Z,101616.37
2018-09-04T04:26:26.183Z,101623.30
2018-09-04T04:28:54.518Z,101622.70
2018-09-04T04:31:22.849Z,101617.36
2018-09-04T04:33:51.193Z,101617.44
2018-09-04T04:36:18.934Z,101618.48
2018-09-04T04:38:47.843Z,101616.91
2018-09-04T04:41:16.205Z,101615.39
2018-09-04T04:43:44.514Z,101613.04
2018-09-04T04:46:12.840Z,101615.31
2018-09-04T04:48:41.184Z,101612.34
2018-09-04T04:51:09.523Z,101611.23
2018-09-04T04:53:37.862Z,101608.87
2018-09-04T04:56:06.210Z,101605.86
2018-09-04T04:58:33.994Z,101608.51
2018-09-04T05:01:02.900Z,101613.66
2018-09-04T05:03:31.242Z,101611.55
2018-09-04T05:05:59.568Z,101608.23
2018-09-04T05:08:27.889Z,101610.09
2018-09-04T05:10:55.649Z,101609.16
2018-09-04T05:13:24.548Z,101613.08
2018-09-04T05:15:52.288Z,101610.70
2018-09-04T05:18:21.232Z,101611.93
2018-09-04T05:20:49.775Z,101610.94
2018-09-04T05:23:17.653Z,101609.77
2018-09-04T05:25:47.018Z,101606.75
2018-09-04T05:28:14.626Z,101606.36
2018-09-04T05:30:42.947Z,101603.21
2018-09-04T05:33:10.710Z,101604.02
2018-09-04T05:35:39.047Z,101605.52
2018-09-04T05:38:07.400Z,101605.34
2018-09-04T05:40:36.318Z,101605.03
2018-09-04T05:43:04.677Z,101598.36
2018-09-04T05:45:32.506Z,101598.47
2018-09-04T05:48:03.267Z,101599.70
2018-09-04T05:50:29.719Z,101600.98
2018-09-04T05:52:58.088Z,101601.97
2018-09-04T05:55:26.433Z,101598.57
2018-09-04T05:57:54.205Z,101605.42
2018-09-04T06:00:23.364Z,101603.61
2018-09-04T06:02:51.228Z,101608.11
2018-09-04T06:05:19.244Z,101603.40
2018-09-04T06:07:47.577Z,101606.99
2018-09-04T06:10:16.495Z,101610.47
2018-09-04T06:12:44.846Z,101609.06
2018-09-04T06:15:13.226Z,101607.86
2018-09-04T06:17:40.970Z,101609.35
2018-09-04T06:20:09.913Z,101607.69
2018-09-04T06:22:38.230Z,101609.16
2018-09-04T06:25:05.986Z,101607.09
2018-09-04T06:27:34.960Z,101607.17
2018-09-04T06:30:03.305Z,101604.67
2018-09-04T06:32:31.651Z,101605.70
2018-09-04T06:34:59.981Z,101606.28
2018-09-04T06:37:27.734Z,101603.59
2018-09-04T06:39:56.863Z,101600.78
2018-09-04T06:42:25.197Z,101593.95
2018-09-04T06:44:52.973Z,101592.35
2018-09-04T06:47:21.877Z,101594.14
2018-09-04T06:49:50.213Z,101591.75
2018-09-04T06:52:18.560Z,101593.09
2018-09-04T06:54:46.939Z,101595.45
2018-09-04T06:57:15.834Z,101596.05
2018-09-04T06:59:43.007Z,101597.47
2018-09-04T07:02:11.344Z,101599.92
2018-09-04T07:04:39.675Z,101602.75
2018-09-04T07:07:08.005Z,101603.48
2018-09-04T07:09:38.677Z,101604.48
2018-09-04T07:12:05.703Z,101604.07
2018-09-04T07:14:34.648Z,101603.37
2018-09-04T07:17:03.079Z,101600.27
2018-09-04T07:19:31.357Z,101607.11
2018-09-04T07:21:59.721Z,101604.73
2018-09-04T07:24:28.101Z,101606.41
2018-09-04T07:26:55.852Z,101605.57
2018-09-04T07:29:24.760Z,101608.98
2018-09-04T07:31:53.350Z,101611.16
2018-09-04T07:34:21.479Z,101605.41
2018-09-04T07:36:49.253Z,101604.00
2018-09-04T07:39:18.168Z,101599.41
2018-09-04T07:41:45.979Z,101601.42
2018-09-04T07:44:14.284Z,101601.06
2018-09-04T07:46:43.196Z,101603.85
2018-09-04T07:49:11.531Z,101608.41
2018-09-04T07:51:39.286Z,101604.52
2018-09-04T07:54:07.649Z,101603.77
2018-09-04T07:56:36.591Z,101601.48
2018-09-04T07:59:04.939Z,101601.89
2018-09-04T08:01:33.280Z,101606.02
2018-09-04T08:04:01.380Z,101605.86
2018-09-04T08:06:30.116Z,101607.81
2018-09-04T08:08:58.458Z,101608.86
2018-09-04T08:11:26.783Z,101611.92
2018-09-04T08:13:54.526Z,101611.59
2018-09-04T08:16:23.467Z,101612.00
2018-09-04T08:18:51.748Z,101607.48
2018-09-04T08:21:19.514Z,101605.06
2018-09-04T08:23:48.415Z,101603.63
2018-09-04T08:26:16.802Z,101605.11
2018-09-04T08:28:45.071Z,101605.47
2018-09-04T08:31:12.818Z,101605.72
2018-09-04T08:33:41.886Z,101605.33
2018-09-04T08:36:10.222Z,101600.76
2018-09-04T08:38:38.579Z,101602.03
2018-09-04T08:41:06.909Z,101598.97
2018-09-04T08:43:35.266Z,101598.23
2018-09-04T08:46:03.812Z,101602.87
2018-09-04T08:48:31.921Z,101604.17
2018-09-04T08:51:00.493Z,101605.82
2018-09-04T08:53:28.041Z,101603.12
2018-09-04T08:55:56.382Z,101606.80
2018-09-04T08:58:26.435Z,101611.67
2018-09-04T09:00:54.171Z,101608.59
2018-09-04T09:03:23.093Z,101612.72
2018-09-04T09:05:50.894Z,101614.58
2018-09-04T09:08:19.180Z,101614.33
2018-09-04T09:10:48.079Z,101613.98
2018-09-04T09:13:16.404Z,101614.63
2018-09-04T09:15:44.141Z,101614.93
2018-09-04T09:18:12.468Z,101610.40
2018-09-04T09:20:40.789Z,101602.84
2018-09-04T09:23:09.683Z,101599.64
2018-09-04T09:25:37.432Z,101602.55
2018-09-04T09:28:06.332Z,101603.98
2018-09-04T09:30:34.667Z,101603.66
2018-09-04T09:33:02.405Z,101605.45
2018-09-04T09:35:30.733Z,101609.52
2018-09-04T09:37:59.641Z,101606.70
2018-09-04T09:40:27.964Z,101602.05
2018-09-04T09:42:55.730Z,101599.97
2018-09-04T09:45:24.041Z,101596.89
2018-09-04T09:47:52.953Z,101599.23
2018-09-04T09:50:21.280Z,101600.88
2018-09-04T09:52:49.664Z,101601.92
2018-09-04T09:55:17.380Z,101600.24
2018-09-04T09:57:46.265Z,101596.63
2018-09-04T10:00:14.591Z,101596.83
2018-09-04T10:02:42.899Z,101598.44
2018-09-04T10:05:11.241Z,101595.80
2018-09-04T10:07:39.648Z,101604.88
2018-09-04T10:10:07.945Z,101602.14
2018-09-04T10:12:36.256Z,101602.78
2018-09-04T10:15:04.580Z,101599.82
2018-09-04T10:17:32.897Z,101598.00
2018-09-04T10:20:01.340Z,101603.93
2018-09-04T10:22:29.556Z,101606.13
2018-09-04T10:24:57.305Z,101601.89
2018-09-04T10:27:26.223Z,101600.13
2018-09-04T10:29:53.957Z,101598.42
2018-09-04T10:32:22.291Z,101597.91
2018-09-04T10:34:50.627Z,101600.39
2018-09-04T10:37:19.534Z,101596.16
2018-09-04T10:39:48.232Z,101595.41
2018-09-04T10:42:16.534Z,101593.19
2018-09-04T10:45:05.293Z,101594.64
2018-09-04T10:47:32.118Z,101599.36
2018-09-04T10:50:00.489Z,101594.13
2018-09-04T10:52:28.824Z,101597.39
2018-09-04T10:55:00.498Z,101596.63
2018-09-04T10:57:31.392Z,101594.66
2018-09-04T10:59:59.789Z,101594.08
2018-09-04T11:02:28.299Z,101593.75
2018-09-04T11:04:56.538Z,101591.80
2018-09-04T11:07:29.750Z,101591.61
2018-09-04T11:09:58.132Z,101594.18
2018-09-04T11:12:26.360Z,101592.77
2018-09-04T11:14:54.365Z,101594.88
2018-09-04T11:17:23.018Z,101595.36
2018-09-04T11:19:51.343Z,101589.97
2018-09-04T11:22:19.664Z,101589.69
2018-09-04T11:24:47.398Z,101589.32
2018-09-04T11:27:16.298Z,101596.64
2018-09-04T11:29:44.116Z,101596.33
2018-09-04T11:32:13.027Z,101594.65
2018-09-04T11:34:40.787Z,101596.81
2018-09-04T11:37:09.756Z,101597.03
2018-09-04T11:39:37.541Z,101595.69
2018-09-04T11:42:06.517Z,101598.27
2018-09-04T11:44:34.868Z,101593.27
2018-09-04T11:47:03.395Z,101597.41
2018-09-04T11:49:32.197Z,101596.20
2018-09-04T11:51:59.950Z,101590.58
2018-09-04T11:54:28.885Z,101587.98
2018-09-04T11:56:56.633Z,101590.50
2018-09-04T11:59:25.595Z,101592.20
2018-09-04T12:01:53.890Z,101587.62
2018-09-04T12:04:21.664Z,101583.88
2018-09-04T12:06:50.571Z,101587.50
2018-09-04T12:09:18.924Z,101590.13
2018-09-04T12:11:46.656Z,101592.45
2018-09-04T12:14:15.020Z,101590.44
2018-09-04T12:16:43.698Z,101590.78
2018-09-04T12:19:11.739Z,101592.89
2018-09-04T12:21:40.581Z,101597.89
2018-09-04T12:24:09.116Z,101595.32
2018-09-04T12:26:37.467Z,101592.09
2018-09-04T12:29:06.018Z,101591.08
2018-09-04T12:31:34.115Z,101594.00
2018-09-04T12:34:02.464Z,101590.48
2018-09-04T12:36:30.898Z,101594.52
2018-09-04T12:38:59.200Z,101587.28
2018-09-04T12:41:27.525Z,101589.23
2018-09-04T12:43:55.284Z,101596.20
2018-09-04T12:46:29.550Z,101596.43
2018-09-04T12:48:57.702Z,101601.44
2018-09-04T12:51:26.016Z,101597.05
2018-09-04T12:53:57.037Z,101597.17
2018-09-04T12:56:25.254Z,101594.37
2018-09-04T12:58:53.729Z,101592.31
2018-09-04T13:01:22.239Z,101582.41
2018-09-04T13:03:51.749Z,101580.56
2018-09-04T13:06:19.623Z,101580.53
2018-09-04T13:08:48.660Z,101579.00
2018-09-04T13:11:18.356Z,101578.76
2018-09-04T13:14:10.179Z,101580.97
2018-09-04T13:16:40.609Z,101576.42
2018-09-04T13:19:09.013Z,101578.95
2018-09-04T13:21:37.843Z,101578.44
2018-09-04T13:24:07.902Z,101576.20
2018-09-04T13:26:38.555Z,101583.27
2018-09-04T13:29:06.980Z,101582.45
2018-09-04T13:31:35.820Z,101583.00
2018-09-04T13:34:04.214Z,101577.31
2018-09-04T13:36:34.081Z,101578.54
2018-09-04T13:39:03.645Z,101572.78
2018-09-04T13:41:32.502Z,101576.32
2018-09-04T13:44:01.400Z,101574.03
2018-09-04T13:46:29.860Z,101584.78
2018-09-04T13:48:58.426Z,101583.74
2018-09-04T13:51:26.008Z,101581.88
2018-09-04T13:53:54.345Z,101582.48
2018-09-04T13:56:23.261Z,101585.78
2018-09-04T13:58:51.591Z,101587.72
2018-09-04T14:01:19.930Z,101581.89
2018-09-04T14:03:47.693Z,101576.05
2018-09-04T14:06:16.608Z,101578.81
2018-09-04T14:08:44.347Z,101581.68
2018-09-04T14:11:13.274Z,101579.97
2018-09-04T14:13:41.590Z,101575.48
2018-09-04T14:16:10.903Z,101578.60
2018-09-04T14:18:38.646Z,101582.61
2018-09-04T14:21:07.623Z,101582.58
2018-09-04T14:23:35.883Z,101580.52
2018-09-04T14:26:04.235Z,101585.05
2018-09-04T14:29:06.425Z,101585.17
2018-09-04T14:31:00.920Z,101581.67
2018-09-04T14:33:29.263Z,101579.72
2018-09-04T14:35:58.136Z,101585.27
2018-09-04T14:38:26.462Z,101578.90
2018-09-04T14:40:54.225Z,101569.94
2018-09-04T14:43:23.177Z,101572.37
2018-09-04T14:45:51.530Z,101572.53
2018-09-04T14:48:20.551Z,101574.91
2018-09-04T14:50:48.850Z,101572.73
2018-09-04T14:53:17.173Z,101573.47
2018-09-04T14:55:45.511Z,101570.30
2018-09-04T14:58:13.852Z,101571.31
2018-09-04T15:00:41.594Z,101574.33
2018-09-04T15:03:10.800Z,101576.78
2018-09-04T15:05:39.129Z,101577.00
2018-09-04T15:08:07.467Z,101575.58
2018-09-04T15:10:35.791Z,101575.59
2018-09-04T15:13:04.756Z,101578.16
2018-09-04T15:15:33.100Z,101578.91
2018-09-04T15:18:01.442Z,101581.09
2018-09-04T15:20:29.230Z,101584.73
2018-09-04T15:22:58.206Z,101588.20
2018-09-04T15:25:26.477Z,101584.20
2018-09-04T15:27:55.491Z,101587.23
2018-09-04T15:30:23.110Z,101587.27
2018-09-04T15:32:51.675Z,101584.38
2018-09-04T15:35:20.345Z,101588.23
2018-09-04T15:37:48.754Z,101587.22
2018-09-04T15:40:16.468Z,101587.38
2018-09-04T15:42:46.696Z,101584.59
2018-09-04T15:45:13.169Z,101584.27
2018-09-04T15:47:41.498Z,101588.24
2018-09-04T15:50:10.407Z,101592.95
2018-09-04T15:52:38.782Z,101592.77
2018-09-04T15:55:07.120Z,101590.85
2018-09-04T15:57:35.491Z,101595.84
2018-09-04T16:00:03.841Z,101593.67
2018-09-04T16:02:31.584Z,101594.66
2018-09-04T16:05:00.517Z,101593.19
2018-09-04T16:07:28.851Z,101589.50
2018-09-04T16:09:57.202Z,101593.60
2018-09-04T16:12:25.530Z,101590.20
2018-09-04T16:14:53.856Z,101590.84
2018-09-04T16:17:21.619Z,101589.72
2018-09-04T16:19:49.950Z,101596.13
2018-09-04T16:22:18.859Z,101594.80
2018-09-04T16:24:47.233Z,101599.25
2018-09-04T16:27:15.524Z,101603.59
2018-09-04T16:29:43.862Z,101606.23
2018-09-04T16:32:12.197Z,101599.59
2018-09-04T16:34:39.985Z,101602.42
2018-09-04T16:37:08.927Z,101601.20
2018-09-04T16:39:37.317Z,101607.82
2018-09-04T16:42:05.681Z,101608.44
2018-09-04T16:44:34.113Z,101611.55
2018-09-04T16:47:02.865Z,101612.64
2018-09-04T16:49:31.855Z,101610.91
2018-09-04T16:51:59.493Z,101610.64
2018-09-04T16:54:27.252Z,101610.55
2018-09-04T16:56:56.137Z,101612.83
2018-09-04T16:59:24.498Z,101616.19
2018-09-04T17:01:52.814Z,101617.91
2018-09-04T17:04:21.140Z,101617.48
2018-09-04T17:06:49.474Z,101619.48
2018-09-04T17:09:17.822Z,101618.06
2018-09-04T17:11:46.148Z,101616.45
2018-09-04T17:14:13.895Z,101623.53
2018-09-04T17:16:42.811Z,101622.88
2018-09-04T17:19:10.570Z,101623.73
2018-09-04T17:21:39.496Z,101630.53
2018-09-04T17:24:07.836Z,101625.11
2018-09-04T17:26:36.170Z,101622.71
2018-09-04T17:29:04.507Z,101627.52
2018-09-04T17:31:32.866Z,101625.94
2018-09-04T17:34:01.212Z,101628.64
2018-09-04T17:36:29.557Z,101625.66
2018-09-04T17:38:57.896Z,101626.22
2018-09-04T17:41:25.640Z,101625.12
2018-09-04T17:43:53.957Z,101628.64
2018-09-04T17:46:22.869Z,101633.92
2018-09-04T17:48:50.626Z,101636.31
2018-09-04T17:51:19.771Z,101635.72
2018-09-04T17:53:47.864Z,101634.45
2018-09-04T17:56:16.194Z,101638.74
2018-09-04T17:58:43.938Z,101640.80
2018-09-04T18:01:12.851Z,101644.58
2018-09-04T18:03:41.162Z,101647.41
2018-09-04T18:06:09.857Z,101652.72
2018-09-04T18:08:38.485Z,101655.17
2018-09-04T18:11:06.613Z,101654.92
2018-09-04T18:13:35.963Z,101655.38
2018-09-04T18:16:04.300Z,101657.42
2018-09-04T18:18:32.644Z,101659.63
2018-09-04T18:21:01.250Z,101658.08
2018-09-04T18:23:29.637Z,101658.80
2018-09-04T18:25:58.368Z,101661.38
2018-09-04T18:28:26.511Z,101663.30
2018-09-04T18:30:54.943Z,101664.97
2018-09-04T18:33:31.511Z,101664.90
2018-09-04T18:35:59.949Z,101668.03
2018-09-04T18:38:28.716Z,101670.50
2018-09-04T18:40:58.857Z,101667.98
2018-09-04T18:43:27.288Z,101664.64
2018-09-04T18:45:56.761Z,101666.97
2018-09-04T18:48:24.107Z,101668.28
2018-09-04T18:50:52.454Z,101675.41
2018-09-04T18:53:20.787Z,101674.09
2018-09-04T18:55:49.108Z,101674.90
2018-09-04T18:58:17.449Z,101681.55
2018-09-04T19:00:45.797Z,101686.67
2018-09-04T19:03:14.478Z,101690.14
2018-09-04T19:05:43.617Z,101688.88
2018-09-04T19:08:11.727Z,101687.41
2018-09-04T19:10:40.190Z,101690.89
2018-09-04T19:13:11.399Z,101688.95
2018-09-04T19:15:39.500Z,101690.36
2018-09-04T19:18:07.232Z,101689.31
2018-09-04T19:20:37.174Z,101694.11
2018-09-04T19:23:05.310Z,101697.28
2018-09-04T19:25:33.651Z,101696.52
2018-09-04T19:28:02.015Z,101693.53
2018-09-04T19:30:29.798Z,101692.59
2018-09-04T19:32:58.143Z,101694.50
2018-09-04T19:35:27.081Z,101693.86
2018-09-04T19:37:55.425Z,101696.07
2018-09-04T19:40:23.300Z,101694.33
2018-09-04T19:42:52.326Z,101694.55
2018-09-04T19:45:20.440Z,101696.28
2018-09-04T19:47:49.447Z,101695.17
2018-09-04T19:50:17.779Z,101699.58
2018-09-04T19:52:46.116Z,101698.34
2018-09-04T19:55:13.868Z,101697.46
2018-09-04T19:57:42.785Z,101693.45
2018-09-04T20:00:11.120Z,101694.42
2018-09-04T20:02:38.864Z,101693.00
2018-09-04T20:05:07.789Z,101691.31
2018-09-04T20:07:36.159Z,101693.56
2018-09-04T20:10:04.502Z,101698.70
2018-09-04T20:12:32.843Z,101695.80
2018-09-04T20:15:01.437Z,101695.71
2018-09-04T20:17:29.723Z,101696.13
2018-09-04T20:19:58.057Z,101694.58
2018-09-04T20:22:26.402Z,101693.91
2018-09-04T20:24:54.765Z,101694.08
2018-09-04T20:27:23.116Z,101696.45
2018-09-04T20:29:50.939Z,101697.69
2018-09-04T20:32:19.200Z,101701.28
2018-09-04T20:34:47.537Z,101698.41
2018-09-04T20:37:15.860Z,101697.43
2018-09-04T20:39:44.211Z,101699.52
2018-09-04T20:42:12.601Z,101696.46
2018-09-04T20:44:41.537Z,101698.00
2018-09-04T20:47:10.054Z,101700.41
2018-09-04T20:49:54.745Z,101697.98
2018-09-04T20:52:22.409Z,101701.39
2018-09-04T20:54:51.760Z,101701.06
2018-09-04T20:57:20.698Z,101698.15
2018-09-04T21:00:00.847Z,101698.03
2018-09-04T21:02:40.701Z,101696.98
2018-09-04T21:05:21.420Z,101693.90
2018-09-04T21:07:49.944Z,101691.62
2018-09-04T21:10:19.568Z,101688.92
2018-09-04T21:12:47.975Z,101683.31
2018-09-04T21:15:17.654Z,101685.14
2018-09-04T21:17:46.638Z,101679.94
2018-09-04T21:20:15.276Z,101677.36
2018-09-04T21:22:43.090Z,101680.98
2018-09-04T21:25:12.050Z,101686.56
2018-09-04T21:27:41.715Z,101689.19
2018-09-04T21:30:09.883Z,101688.85
2018-09-04T21:32:41.507Z,101683.20
2018-09-04T21:35:10.295Z,101686.27
2018-09-04T21:37:38.383Z,101683.30
2018-09-04T21:40:07.524Z,101684.00
2018-09-04T21:42:35.883Z,101684.47
2018-09-04T21:45:03.759Z,101686.03
2018-09-04T21:47:32.682Z,101684.96
2018-09-04T21:50:00.440Z,101685.08
2018-09-04T21:52:28.797Z,101684.97
2018-09-04T21:54:57.134Z,101680.47
2018-09-04T21:57:26.069Z,101678.98
2018-09-04T21:59:54.402Z,101676.44
2018-09-04T22:02:22.759Z,101678.33
2018-09-04T22:04:51.106Z,101675.23
2018-09-04T22:07:18.884Z,101678.08
2018-09-04T22:09:47.874Z,101680.61
2018-09-04T22:12:16.621Z,101674.81
2018-09-04T22:14:45.239Z,101676.80
2018-09-04T22:17:13.386Z,101668.59
2018-09-04T22:19:42.528Z,101664.96
2018-09-04T22:22:11.192Z,101667.70
2018-09-04T22:24:39.487Z,101668.02
2018-09-04T22:27:07.238Z,101664.04
2018-09-04T22:29:36.196Z,101666.59
2018-09-04T22:32:04.542Z,101662.82
2018-09-04T22:34:32.888Z,101660.11
2018-09-04T22:37:01.443Z,101664.80
2018-09-04T22:39:29.561Z,101662.91
2018-09-04T22:41:58.892Z,101667.72
2018-09-04T22:44:25.662Z,101667.83
2018-09-04T22:46:54.789Z,101671.98
2018-09-04T22:49:23.328Z,101673.48
2018-09-04T22:51:51.456Z,101676.97
2018-09-04T22:54:20.404Z,101675.09
2018-09-04T22:56:48.972Z,101677.75
2018-09-04T22:59:18.717Z,101676.39
2018-09-04T23:01:46.862Z,101675.62
2018-09-04T23:04:15.173Z,101677.20
2018-09-04T23:06:43.911Z,101674.44
2018-09-04T23:09:12.029Z,101674.35
2018-09-04T23:11:40.376Z,101677.41
2018-09-04T23:14:08.710Z,101675.13
2018-09-04T23:16:38.281Z,101673.13
2018-09-04T23:19:06.416Z,101673.45
2018-09-04T23:21:34.787Z,101672.83
2018-09-04T23:24:03.134Z,101674.00
2018-09-04T23:26:31.839Z,101673.22
2018-09-04T23:29:00.226Z,101672.12
2018-09-04T23:31:28.636Z,101678.87
2018-09-04T23:33:57.557Z,101677.59
2018-09-04T23:36:26.677Z,101677.72
2018-09-04T23:38:54.999Z,101673.58
2018-09-04T23:41:23.640Z,101679.25
2018-09-04T23:43:52.956Z,101679.48
2018-09-04T23:46:19.895Z,101680.25
2018-09-04T23:48:48.837Z,101678.10
2018-09-04T23:51:19.393Z,101675.98
2018-09-04T23:53:46.778Z,101669.66
2018-09-04T23:56:14.521Z,101666.78
2018-09-04T23:58:43.431Z,101669.84
